Time;durP1;ratioP1;P1;durP2;ratioP2;P2;SDS_P1;SDS_P2;PMS_P1;PMS_P2;Temp;Humidity;BMP_temperature;BMP_pressure;BME280_temperature;BME280_humidity;BME280_pressure;Samples;Min_cycle;Max_cycle;Signal;HPM_P1;HPM_P2
2023/01/29 00:00:35;;;;;;;;;;;;;;;2.43;100.00;100240.78;5075389;28;19921;-75
2023/01/29 00:03:00;;;;;;;;;;;;;;;2.14;100.00;100232.53;5060025;28;19912;-75
2023/01/29 00:05:25;;;;;;;;;;;;;;;1.88;100.00;100230.28;5076322;28;19916;-76
2023/01/29 00:07:51;;;;;;;;;;;;;;;1.90;100.00;100248.94;5080907;28;19955;-75
2023/01/29 00:10:16;;;;;;;;;;;;;;;2.03;100.00;100248.41;5081951;28;19920;-75
2023/01/29 00:12:41;;;;;;;;;;;;;;;1.52;100.00;100251.41;5077957;28;20362;-75
2023/01/29 00:15:06;;;;;;;;;;;;;;;1.85;100.00;100255.63;5084916;28;20521;-75
2023/01/29 00:17:32;;;;;;;;;;;;;;;1.80;100.00;100252.09;5084164;28;20363;-75
2023/01/29 00:19:57;;;;;;;;;;;;;;;1.60;100.00;100255.03;5080639;28;20285;-75
2023/01/29 00:22:22;;;;;;;;;;;;;;;1.75;100.00;100239.28;5080947;28;19962;-75
2023/01/29 00:24:47;;;;;;;;;;;;;;;1.09;100.00;100242.72;5082609;28;19916;-75
2023/01/29 00:27:13;;;;;;;;;;;;;;;1.46;100.00;100246.22;5081125;28;19927;-75
2023/01/29 00:29:38;;;;;;;;;;;;;;;0.83;100.00;100242.88;5061835;28;19921;-75
2023/01/29 00:32:03;;;;;;;;;;;;;;;0.78;100.00;100249.50;5060223;28;19966;-75
2023/01/29 00:34:29;;;;;;;;;;;;;;;1.14;100.00;100247.91;5078973;28;19920;-76
2023/01/29 00:37:03;;;;;;;;;;;;;;;1.06;100.00;100251.94;5080946;28;19916;-75
2023/01/29 00:39:37;;;;;;;;;;;;;;;1.18;100.00;100255.63;5082502;28;19927;-75
2023/01/29 00:44:59;;;;;;;;;;;;;;;1.33;100.00;100239.09;5079921;28;20419;-75
2023/01/29 00:47:32;;;;;;;;;;;;;;;1.55;100.00;100228.66;5079981;28;19965;-75
2023/01/29 00:49:57;;;;;;;;;;;;;;;1.85;100.00;100225.97;5063297;28;19959;-75
2023/01/29 00:52:23;;;;;;;;;;;;;;;1.23;100.00;100222.78;5061306;28;19958;-75
2023/01/29 00:54:48;;;;;;;;;;;;;;;0.97;100.00;100228.03;5061409;28;19936;-76
2023/01/29 00:57:13;;;;;;;;;;;;;;;1.64;100.00;100233.97;5085318;28;20022;-75
2023/01/29 00:59:38;;;;;;;;;;;;;;;1.46;100.00;100241.13;5063698;28;20003;-75
2023/01/29 01:04:47;;;;;;;;;;;;;;;1.29;100.00;100237.31;5066518;28;19974;-75
2023/01/29 01:07:12;;;;;;;;;;;;;;;1.66;100.00;100242.44;5078787;28;19959;-75
2023/01/29 01:12:22;;;;;;;;;;;;;;;1.33;100.00;100226.41;5080916;28;19924;-76
2023/01/29 01:14:47;;;;;;;;;;;;;;;0.71;100.00;100241.69;5061651;28;19924;-75
2023/01/29 01:17:14;;;;;;;;;;;;;;;0.74;100.00;100246.84;5079905;28;19912;-75
2023/01/29 01:19:39;;;;;;;;;;;;;;;0.93;100.00;100259.19;5061633;28;19916;-75
2023/01/29 01:22:04;;;;;;;;;;;;;;;1.27;100.00;100261.78;5064070;28;20292;-76
2023/01/29 01:24:30;;;;;;;;;;;;;;;0.48;100.00;100267.25;5081507;28;19912;-75
2023/01/29 01:26:55;;;;;;;;;;;;;;;1.56;100.00;100273.53;5081517;28;20327;-76
2023/01/29 01:29:20;;;;;;;;;;;;;;;1.28;100.00;100259.28;5062727;28;20678;-75
2023/01/29 01:31:45;;;;;;;;;;;;;;;1.48;100.00;100257.25;5083501;28;19951;-75
2023/01/29 01:34:11;;;;;;;;;;;;;;;1.40;100.00;100246.91;5078882;28;19916;-75
2023/01/29 01:36:36;;;;;;;;;;;;;;;1.42;100.00;100242.72;5064352;28;19939;-76
2023/01/29 01:39:01;;;;;;;;;;;;;;;1.72;100.00;100231.59;5081551;28;19917;-76
2023/01/29 01:41:26;;;;;;;;;;;;;;;0.85;100.00;100220.13;5063452;28;19919;-76
2023/01/29 01:43:53;;;;;;;;;;;;;;;0.54;100.00;100219.25;5064524;28;19916;-76
2023/01/29 01:46:18;;;;;;;;;;;;;;;0.93;100.00;100225.38;5066286;28;19976;-75
2023/01/29 01:48:44;;;;;;;;;;;;;;;1.04;100.00;100223.97;5060679;28;20420;-75
2023/01/29 01:51:09;;;;;;;;;;;;;;;0.60;100.00;100229.56;5062928;28;20367;-75
2023/01/29 01:53:41;;;;;;;;;;;;;;;0.79;100.00;100220.78;5063623;28;20313;-75
2023/01/29 01:56:08;;;;;;;;;;;;;;;0.13;100.00;100220.59;5060358;28;19916;-75
2023/01/29 01:58:35;;;;;;;;;;;;;;;0.41;100.00;100222.25;5060345;28;19966;-75
2023/01/29 02:01:00;;;;;;;;;;;;;;;0.46;100.00;100224.91;5061232;28;20011;-75
2023/01/29 02:11:41;;;;;;;;;;;;;;;1.06;100.00;100232.50;5063514;28;19935;-75
2023/01/29 02:14:06;;;;;;;;;;;;;;;1.21;100.00;100232.91;5079191;28;20289;-75
2023/01/29 02:16:35;;;;;;;;;;;;;;;0.51;100.00;100236.06;5062125;28;19916;-76
2023/01/29 02:19:00;;;;;;;;;;;;;;;1.15;100.00;100229.34;5063303;28;19915;-75
2023/01/29 02:21:28;;;;;;;;;;;;;;;0.78;100.00;100215.69;5062677;28;20011;-75
2023/01/29 02:23:56;;;;;;;;;;;;;;;0.92;100.00;100231.28;5078297;28;19923;-75
2023/01/29 02:26:25;;;;;;;;;;;;;;;1.07;100.00;100231.66;5081108;28;19912;-75
2023/01/29 02:28:52;;;;;;;;;;;;;;;1.50;100.00;100226.81;5076947;28;19924;-75
2023/01/29 02:31:24;;;;;;;;;;;;;;;1.31;100.00;100217.91;5081262;28;19935;-76
2023/01/29 02:33:58;;;;;;;;;;;;;;;1.55;100.00;100226.13;5079269;28;19916;-75
2023/01/29 02:36:40;;;;;;;;;;;;;;;1.65;100.00;100222.13;5081230;28;19913;-76
2023/01/29 02:39:11;;;;;;;;;;;;;;;1.20;100.00;100218.47;5061040;28;19954;-75
2023/01/29 02:41:41;;;;;;;;;;;;;;;0.82;100.00;100227.63;5081575;28;19928;-75
2023/01/29 02:44:15;;;;;;;;;;;;;;;0.16;100.00;100233.34;5059859;28;19916;-75
2023/01/29 02:46:44;;;;;;;;;;;;;;;0.33;100.00;100238.94;5062367;28;19920;-75
2023/01/29 02:49:11;;;;;;;;;;;;;;;0.78;100.00;100244.44;5060904;28;19934;-76
2023/01/29 02:51:36;;;;;;;;;;;;;;;1.01;100.00;100232.38;5077296;28;19912;-76
2023/01/29 02:54:31;;;;;;;;;;;;;;;1.24;100.00;100230.44;5079239;28;19981;-76
2023/01/29 02:56:57;;;;;;;;;;;;;;;1.17;100.00;100227.72;5059787;28;19946;-75
2023/01/29 02:59:32;;;;;;;;;;;;;;;1.31;100.00;100234.00;5058800;28;19936;-76
2023/01/29 03:02:02;;;;;;;;;;;;;;;1.36;100.00;100242.56;5060181;28;19943;-76
2023/01/29 03:04:28;;;;;;;;;;;;;;;1.12;100.00;100234.31;5060398;28;20617;-76
2023/01/29 03:06:56;;;;;;;;;;;;;;;1.22;100.00;100246.44;5060448;28;19924;-76
2023/01/29 03:09:27;;;;;;;;;;;;;;;0.69;100.00;100249.25;5060799;28;20625;-76
2023/01/29 03:11:53;;;;;;;;;;;;;;;1.07;100.00;100261.25;5056518;28;20782;-75
2023/01/29 03:17:33;;;;;;;;;;;;;;;1.29;100.00;100238.16;5079349;28;19970;-75
2023/01/29 03:19:58;;;;;;;;;;;;;;;1.38;100.00;100243.47;5061100;28;20290;-76
2023/01/29 03:22:23;;;;;;;;;;;;;;;1.43;100.00;100241.03;5058171;28;19920;-76
2023/01/29 03:33:16;;;;;;;;;;;;;;;0.35;100.00;100243.22;5065439;28;19937;-76
2023/01/29 03:35:46;;;;;;;;;;;;;;;0.40;100.00;100241.69;5055447;28;20044;-76
2023/01/29 03:38:11;;;;;;;;;;;;;;;0.45;100.00;100246.03;5061256;28;19915;-75
2023/01/29 03:40:43;;;;;;;;;;;;;;;0.96;100.00;100254.22;5059348;28;20385;-76
2023/01/29 03:43:10;;;;;;;;;;;;;;;1.30;100.00;100254.25;5064445;28;19920;-76
2023/01/29 03:45:42;;;;;;;;;;;;;;;1.12;100.00;100249.53;5066228;28;20133;-76
2023/01/29 03:48:07;;;;;;;;;;;;;;;1.06;100.00;100242.66;5060315;28;19916;-75
2023/01/29 03:50:35;;;;;;;;;;;;;;;1.13;100.00;100241.97;5063922;28;19939;-75
2023/01/29 03:53:03;;;;;;;;;;;;;;;0.68;100.00;100237.38;5076565;28;20419;-75
2023/01/29 03:55:37;;;;;;;;;;;;;;;0.75;100.00;100246.91;5061505;28;19996;-75
2023/01/29 03:58:08;;;;;;;;;;;;;;;0.49;100.00;100237.69;5061993;28;19922;-76
2023/01/29 04:00:37;;;;;;;;;;;;;;;0.10;100.00;100243.31;5065679;28;19917;-75
2023/01/29 04:03:11;;;;;;;;;;;;;;;0.50;100.00;100249.53;5059273;28;19913;-75
2023/01/29 04:05:39;;;;;;;;;;;;;;;0.44;100.00;100244.31;5062355;28;19924;-75
2023/01/29 04:08:06;;;;;;;;;;;;;;;0.36;100.00;100244.06;5063108;28;19970;-75
2023/01/29 04:10:31;;;;;;;;;;;;;;;0.10;100.00;100249.25;5062843;28;19912;-75
2023/01/29 04:13:07;;;;;;;;;;;;;;;0.47;100.00;100240.19;5062292;28;19930;-76
2023/01/29 04:15:34;;;;;;;;;;;;;;;1.01;100.00;100232.38;5079499;28;19927;-75
2023/01/29 04:17:59;;;;;;;;;;;;;;;0.52;100.00;100223.44;5064917;28;20366;-75
2023/01/29 04:20:24;;;;;;;;;;;;;;;0.90;100.00;100212.63;5060769;28;19923;-75
2023/01/29 04:22:50;;;;;;;;;;;;;;;0.63;100.00;100218.66;5079494;28;19912;-75
2023/01/29 04:25:25;;;;;;;;;;;;;;;0.99;100.00;100218.78;5059887;28;19912;-75
2023/01/29 04:28:09;;;;;;;;;;;;;;;0.57;100.00;100215.94;5062120;28;20329;-76
2023/01/29 04:30:45;;;;;;;;;;;;;;;0.33;100.00;100208.53;5075569;28;20280;-75
2023/01/29 04:33:23;;;;;;;;;;;;;;;0.43;100.00;100214.72;5065951;28;19920;-76
2023/01/29 04:35:48;;;;;;;;;;;;;;;0.95;100.00;100226.28;5077823;28;19916;-76
2023/01/29 04:38:21;;;;;;;;;;;;;;;0.85;100.00;100220.13;5078341;28;19920;-75
2023/01/29 04:40:46;;;;;;;;;;;;;;;0.57;100.00;100221.00;5056720;28;19921;-75
2023/01/29 04:43:17;;;;;;;;;;;;;;;0.86;100.00;100215.91;5073663;28;19920;-75
2023/01/29 04:45:57;;;;;;;;;;;;;;;0.62;100.00;100206.81;5047077;28;19943;-76
2023/01/29 04:48:24;;;;;;;;;;;;;;;0.43;100.00;100202.03;5071721;28;19931;-76
2023/01/29 04:50:55;;;;;;;;;;;;;;;0.44;100.00;100191.09;5054647;28;19920;-75
2023/01/29 04:53:35;;;;;;;;;;;;;;;0.55;100.00;100187.19;5071681;28;19928;-75
2023/01/29 04:56:24;;;;;;;;;;;;;;;0.65;100.00;100194.22;5073798;28;19927;-75
2023/01/29 04:58:50;;;;;;;;;;;;;;;0.78;100.00;100188.66;5062817;28;19920;-75
2023/01/29 05:01:16;;;;;;;;;;;;;;;1.02;100.00;100185.88;5053167;28;21101;-75
2023/01/29 05:03:42;;;;;;;;;;;;;;;0.79;100.00;100180.22;5036357;28;20018;-75
2023/01/29 05:06:08;;;;;;;;;;;;;;;0.12;100.00;100168.25;5054843;28;19964;-75
2023/01/29 05:08:34;;;;;;;;;;;;;;;0.40;100.00;100165.66;5055568;28;19924;-75
2023/01/29 05:10:59;;;;;;;;;;;;;;;0.53;100.00;100166.00;5055612;28;19931;-75
2023/01/29 05:13:24;;;;;;;;;;;;;;;0.52;100.00;100165.13;5053466;28;20303;-75
2023/01/29 05:15:56;;;;;;;;;;;;;;;0.43;100.00;100158.97;5054509;28;19930;-76
2023/01/29 05:18:21;;;;;;;;;;;;;;;0.34;100.00;100160.44;5048081;28;19920;-76
2023/01/29 05:20:46;;;;;;;;;;;;;;;0.38;100.00;100162.22;5053373;28;20316;-75
2023/01/29 05:23:16;;;;;;;;;;;;;;;0.89;100.00;100160.16;5054652;28;20023;-76
2023/01/29 05:25:41;;;;;;;;;;;;;;;0.35;100.00;100141.03;5053341;28;19927;-76
2023/01/29 05:28:15;;;;;;;;;;;;;;;0.75;100.00;100147.13;5072681;28;19925;-76
2023/01/29 05:30:40;;;;;;;;;;;;;;;0.98;100.00;100155.34;5054851;28;20763;-76
2023/01/29 05:33:11;;;;;;;;;;;;;;;1.08;100.00;100157.28;5054707;28;20171;-75
2023/01/29 05:35:37;;;;;;;;;;;;;;;0.85;100.00;100143.19;5053511;28;19920;-76
2023/01/29 05:38:02;;;;;;;;;;;;;;;0.65;100.00;100148.59;5072397;28;19920;-76
2023/01/29 05:40:27;;;;;;;;;;;;;;;0.74;100.00;100158.97;5072153;28;19973;-75
2023/01/29 05:42:52;;;;;;;;;;;;;;;0.79;100.00;100164.16;5071397;28;19919;-75
2023/01/29 05:45:18;;;;;;;;;;;;;;;0.66;100.00;100162.97;5055672;28;20642;-76
2023/01/29 05:47:43;;;;;;;;;;;;;;;0.40;100.00;100172.41;5053154;28;20571;-75
2023/01/29 05:50:09;;;;;;;;;;;;;;;0.81;100.00;100183.66;5054283;28;20412;-75
2023/01/29 05:52:34;;;;;;;;;;;;;;;1.10;100.00;100186.09;5071921;28;19969;-75
2023/01/29 05:54:59;;;;;;;;;;;;;;;0.89;100.00;100191.50;5054923;28;20023;-75
2023/01/29 05:57:24;;;;;;;;;;;;;;;1.12;100.00;100199.69;5054972;28;19919;-75
2023/01/29 05:59:50;;;;;;;;;;;;;;;0.88;100.00;100204.97;5070817;28;20297;-75
2023/01/29 06:02:15;;;;;;;;;;;;;;;1.73;100.00;100224.84;5071114;28;19974;-75
2023/01/29 06:04:40;;;;;;;;;;;;;;;1.83;100.00;100217.47;5054066;28;19923;-76
2023/01/29 06:07:05;;;;;;;;;;;;;;;1.18;100.00;100209.13;5070378;28;19924;-75
2023/01/29 06:09:30;;;;;;;;;;;;;;;1.35;100.00;100212.09;5045077;28;20428;-75
2023/01/29 06:11:56;;;;;;;;;;;;;;;1.41;100.00;100214.75;5044884;28;19920;-75
2023/01/29 06:14:21;;;;;;;;;;;;;;;1.87;100.00;100218.38;5070938;28;20010;-76
2023/01/29 06:16:46;;;;;;;;;;;;;;;1.22;100.00;100206.69;5053782;28;19920;-76
2023/01/29 06:19:11;;;;;;;;;;;;;;;1.40;100.00;100216.44;5071853;28;20030;-75
2023/01/29 06:21:37;;;;;;;;;;;;;;;1.87;100.00;100228.53;5053413;28;19958;-76
2023/01/29 06:24:02;;;;;;;;;;;;;;;1.17;100.00;100215.03;5054790;28;19935;-75
2023/01/29 06:26:27;;;;;;;;;;;;;;;0.44;100.00;100226.59;5071196;28;19917;-78
2023/01/29 06:28:52;;;;;;;;;;;;;;;0.07;100.00;100228.00;5071983;28;19928;-76
2023/01/29 06:31:18;;;;;;;;;;;;;;;0.88;100.00;100230.31;5071232;28;20335;-75
2023/01/29 06:33:43;;;;;;;;;;;;;;;1.41;100.00;100228.31;5072481;28;19916;-75
2023/01/29 06:36:08;;;;;;;;;;;;;;;1.21;100.00;100210.06;5055398;28;19923;-76
2023/01/29 06:38:34;;;;;;;;;;;;;;;1.23;100.00;100222.78;5071122;28;19924;-75
2023/01/29 06:40:59;;;;;;;;;;;;;;;1.17;100.00;100213.34;5070589;28;19912;-75
2023/01/29 06:43:24;;;;;;;;;;;;;;;1.06;100.00;100214.75;5051623;28;20007;-75
2023/01/29 06:45:51;;;;;;;;;;;;;;;1.18;100.00;100215.03;5073080;28;19959;-75
2023/01/29 06:48:16;;;;;;;;;;;;;;;0.93;100.00;100217.78;5053177;28;20517;-76
2023/01/29 06:50:42;;;;;;;;;;;;;;;1.61;100.00;100233.88;5052342;28;20008;-75
2023/01/29 06:53:07;;;;;;;;;;;;;;;1.68;100.00;100233.19;5052595;28;19927;-75
2023/01/29 06:55:32;;;;;;;;;;;;;;;1.90;100.00;100231.16;5052596;28;19931;-75
2023/01/29 06:57:57;;;;;;;;;;;;;;;1.53;100.00;100231.97;5072598;28;19967;-75
2023/01/29 07:00:22;;;;;;;;;;;;;;;1.45;100.00;100229.25;5053076;28;20023;-75
2023/01/29 07:02:48;;;;;;;;;;;;;;;1.56;100.00;100238.00;5070332;28;19916;-76
2023/01/29 07:05:13;;;;;;;;;;;;;;;2.21;100.00;100247.97;5070323;28;19916;-77
2023/01/29 07:07:38;;;;;;;;;;;;;;;2.01;100.00;100232.28;5051408;28;19986;-76
2023/01/29 07:10:04;;;;;;;;;;;;;;;2.82;100.00;100238.16;5071484;28;19937;-75
2023/01/29 07:12:29;;;;;;;;;;;;;;;2.96;100.00;100240.13;5069814;28;20007;-74
2023/01/29 07:14:54;;;;;;;;;;;;;;;2.39;100.00;100229.69;5070279;28;20339;-75
2023/01/29 07:17:20;;;;;;;;;;;;;;;2.23;100.00;100227.66;5071454;28;20774;-74
2023/01/29 07:19:45;;;;;;;;;;;;;;;2.05;100.00;100217.94;5073658;28;20401;-74
2023/01/29 07:22:10;;;;;;;;;;;;;;;2.30;100.00;100219.31;5075200;28;19919;-75
2023/01/29 07:24:35;;;;;;;;;;;;;;;1.86;100.00;100212.44;5073066;28;19958;-74
2023/01/29 07:27:01;;;;;;;;;;;;;;;1.18;100.00;100204.91;5048461;28;19920;-75
2023/01/29 07:29:26;;;;;;;;;;;;;;;2.09;100.00;100215.50;5075908;28;20003;-77
2023/01/29 07:31:51;;;;;;;;;;;;;;;2.12;100.00;100222.31;5055948;28;19963;-76
2023/01/29 07:34:16;;;;;;;;;;;;;;;2.35;100.00;100227.03;5055464;28;19969;-77
2023/01/29 07:36:42;;;;;;;;;;;;;;;2.75;100.00;100213.44;5052696;28;19912;-76
2023/01/29 07:39:07;;;;;;;;;;;;;;;1.65;100.00;100197.59;5065727;28;20417;-76
2023/01/29 07:41:32;;;;;;;;;;;;;;;2.11;100.00;100202.84;5064559;28;19969;-77
2023/01/29 07:43:57;;;;;;;;;;;;;;;2.20;100.00;100203.03;5084709;28;19920;-76
2023/01/29 07:46:23;;;;;;;;;;;;;;;2.59;100.00;100213.97;5056964;28;20001;-77
2023/01/29 07:48:48;;;;;;;;;;;;;;;2.89;100.00;100206.91;5063902;28;19920;-76
2023/01/29 07:51:13;;;;;;;;;;;;;;;2.14;100.00;100196.94;5064066;28;19923;-76
2023/01/29 07:53:38;;;;;;;;;;;;;;;1.84;100.00;100213.25;5068289;28;20003;-76
2023/01/29 07:56:04;;;;;;;;;;;;;;;1.62;100.00;100216.94;5087682;28;19916;-76
2023/01/29 07:58:29;;;;;;;;;;;;;;;2.40;100.00;100221.25;5065873;28;19912;-77
2023/01/29 08:00:54;;;;;;;;;;;;;;;1.55;100.00;100210.91;5082228;28;19966;-76
2023/01/29 08:03:20;;;;;;;;;;;;;;;2.25;100.00;100216.69;5082596;28;19965;-76
2023/01/29 08:05:45;;;;;;;;;;;;;;;1.58;100.00;100200.81;5066486;28;19924;-77
2023/01/29 08:08:10;;;;;;;;;;;;;;;1.31;100.00;100212.84;5060250;28;19963;-76
2023/01/29 08:10:36;;;;;;;;;;;;;;;2.43;100.00;100223.84;5062245;28;19920;-77
2023/01/29 08:13:01;;;;;;;;;;;;;;;1.89;100.00;100204.03;5083441;28;19916;-76
2023/01/29 08:15:27;;;;;;;;;;;;;;;1.39;100.00;100196.09;5079783;28;19956;-76
2023/01/29 08:17:53;;;;;;;;;;;;;;;1.49;100.00;100190.44;5065385;28;19951;-77
2023/01/29 08:20:18;;;;;;;;;;;;;;;1.58;100.00;100205.88;5060702;28;19959;-76
2023/01/29 08:22:43;;;;;;;;;;;;;;;1.12;100.00;100201.34;5063209;28;19948;-76
2023/01/29 08:25:09;;;;;;;;;;;;;;;1.80;100.00;100221.59;5062124;28;20595;-77
2023/01/29 08:27:34;;;;;;;;;;;;;;;1.11;100.00;100230.94;5082398;28;19922;-77
2023/01/29 08:29:59;;;;;;;;;;;;;;;1.46;100.00;100236.91;5061823;28;20398;-76
2023/01/29 08:32:24;;;;;;;;;;;;;;;0.95;100.00;100223.75;5060186;28;19920;-76
2023/01/29 08:34:50;;;;;;;;;;;;;;;1.25;100.00;100226.22;5082083;28;19989;-76
2023/01/29 08:37:15;;;;;;;;;;;;;;;1.90;100.00;100233.72;5078558;28;19916;-74
2023/01/29 08:39:40;;;;;;;;;;;;;;;2.05;100.00;100233.19;5078949;28;19927;-73
2023/01/29 08:42:05;;;;;;;;;;;;;;;1.79;100.00;100220.75;5076781;28;19925;-74
2023/01/29 08:44:31;;;;;;;;;;;;;;;1.90;100.00;100213.38;5077106;28;19967;-73
2023/01/29 08:46:56;;;;;;;;;;;;;;;1.50;100.00;100206.50;5080489;28;19931;-76
2023/01/29 08:49:21;;;;;;;;;;;;;;;1.54;100.00;100204.09;5078701;28;19924;-75
2023/01/29 08:51:46;;;;;;;;;;;;;;;1.75;100.00;100205.41;5072322;28;19920;-75
2023/01/29 08:54:11;;;;;;;;;;;;;;;1.59;100.00;100201.66;5072992;28;19916;-75
2023/01/29 08:56:37;;;;;;;;;;;;;;;1.88;100.00;100215.03;5072934;28;19913;-75
2023/01/29 08:59:02;;;;;;;;;;;;;;;1.98;100.00;100199.16;5053026;28;20471;-76
2023/01/29 09:01:27;;;;;;;;;;;;;;;2.49;100.00;100216.34;5077910;28;19913;-77
2023/01/29 09:03:52;;;;;;;;;;;;;;;2.33;100.00;100204.16;5058489;28;19923;-74
2023/01/29 09:06:18;;;;;;;;;;;;;;;1.81;100.00;100187.78;5079029;28;19916;-75
2023/01/29 09:08:43;;;;;;;;;;;;;;;1.96;100.00;100172.88;5059541;28;20010;-79
2023/01/29 09:11:09;;;;;;;;;;;;;;;2.35;100.00;100181.28;5061534;28;20009;-80
2023/01/29 09:13:34;;;;;;;;;;;;;;;2.61;100.00;100182.66;5072164;28;20072;-78
2023/01/29 09:16:00;;;;;;;;;;;;;;;2.70;100.00;100187.06;5054817;28;20426;-75
2023/01/29 09:18:25;;;;;;;;;;;;;;;2.88;100.00;100184.03;5053383;28;19917;-76
2023/01/29 09:20:50;;;;;;;;;;;;;;;2.81;100.00;100193.22;5070968;28;19916;-76
2023/01/29 09:23:15;;;;;;;;;;;;;;;2.63;100.00;100192.88;5052832;28;19920;-76
2023/01/29 09:25:44;;;;;;;;;;;;;;;2.69;100.00;100187.88;5068402;28;19920;-76
2023/01/29 09:28:09;;;;;;;;;;;;;;;2.29;100.00;100172.72;5071949;28;19924;-76
2023/01/29 09:30:36;;;;;;;;;;;;;;;2.31;100.00;100180.38;5054593;28;19928;-77
2023/01/29 09:33:01;;;;;;;;;;;;;;;2.33;100.00;100181.28;5071674;28;20344;-77
2023/01/29 09:35:27;;;;;;;;;;;;;;;2.27;100.00;100165.88;5068857;28;19919;-76
2023/01/29 09:37:52;;;;;;;;;;;;;;;2.59;100.00;100176.69;5069482;28;20390;-76
2023/01/29 09:40:20;;;;;;;;;;;;;;;3.07;100.00;100180.94;5070815;28;20308;-75
2023/01/29 09:42:48;;;;;;;;;;;;;;;2.95;100.00;100157.00;5070483;28;19923;-76
2023/01/29 09:45:14;;;;;;;;;;;;;;;2.69;100.00;100157.38;5045670;28;19966;-76
2023/01/29 09:47:39;;;;;;;;;;;;;;;2.44;100.00;100150.97;5051914;28;19958;-75
2023/01/29 09:50:12;;;;;;;;;;;;;;;2.74;100.00;100155.78;5052606;28;20371;-76
2023/01/29 09:52:56;;;;;;;;;;;;;;;2.91;100.00;100153.53;5055676;28;19931;-76
2023/01/29 09:55:22;;;;;;;;;;;;;;;3.01;100.00;100152.88;5073113;28;20478;-77
2023/01/29 09:57:51;;;;;;;;;;;;;;;3.31;100.00;100151.66;5052890;28;20003;-77
2023/01/29 10:00:24;;;;;;;;;;;;;;;3.13;100.00;100144.59;5057346;28;19976;-77
2023/01/29 10:03:05;;;;;;;;;;;;;;;2.76;100.00;100149.03;5058679;28;19923;-77
2023/01/29 10:06:02;;;;;;;;;;;;;;;3.15;100.00;100153.09;5075567;28;19916;-77
2023/01/29 10:08:46;;;;;;;;;;;;;;;3.33;100.00;100157.59;5031335;28;19994;-77
2023/01/29 10:11:17;;;;;;;;;;;;;;;3.32;100.00;100154.22;5055894;28;19950;-76
2023/01/29 10:13:48;;;;;;;;;;;;;;;3.49;100.00;100158.72;5059429;28;19912;-77
2023/01/29 10:16:17;;;;;;;;;;;;;;;3.65;100.00;100140.28;5074638;28;20314;-77
2023/01/29 10:18:58;;;;;;;;;;;;;;;3.71;100.00;100134.41;5056697;28;20519;-77
2023/01/29 10:21:35;;;;;;;;;;;;;;;3.78;100.00;100124.31;5057024;28;20359;-77
2023/01/29 10:24:00;;;;;;;;;;;;;;;3.82;100.00;100116.75;5075418;28;19920;-77
2023/01/29 10:26:26;;;;;;;;;;;;;;;3.00;100.00;100107.03;5073496;28;19935;-77
2023/01/29 10:28:51;;;;;;;;;;;;;;;3.60;100.00;100118.97;5058527;28;20130;-76
2023/01/29 10:31:23;;;;;;;;;;;;;;;4.06;100.00;100118.72;5059956;28;19928;-76
2023/01/29 10:33:57;;;;;;;;;;;;;;;4.02;100.00;100100.00;5057283;28;20286;-77
2023/01/29 10:36:25;;;;;;;;;;;;;;;3.73;100.00;100092.00;5057219;28;19920;-76
2023/01/29 10:38:50;;;;;;;;;;;;;;;3.66;100.00;100085.94;5055669;28;19939;-77
2023/01/29 10:41:25;;;;;;;;;;;;;;;3.56;100.00;100092.63;5056546;28;20444;-77
2023/01/29 10:43:53;;;;;;;;;;;;;;;3.93;100.00;100098.19;5078401;28;19916;-77
2023/01/29 10:46:21;;;;;;;;;;;;;;;4.05;100.00;100084.75;5049086;28;19924;-76
2023/01/29 10:48:55;;;;;;;;;;;;;;;3.78;100.00;100081.00;5075487;28;19924;-76
2023/01/29 10:51:20;;;;;;;;;;;;;;;4.26;100.00;100078.19;5074326;28;19923;-77
2023/01/29 10:53:53;;;;;;;;;;;;;;;3.76;100.00;100062.31;5074326;28;19920;-76
2023/01/29 10:56:18;;;;;;;;;;;;;;;3.96;100.00;100054.06;5057007;28;20358;-76
2023/01/29 10:58:46;;;;;;;;;;;;;;;3.80;100.00;100052.16;5076499;28;19916;-76
2023/01/29 11:01:11;;;;;;;;;;;;;;;4.16;100.00;100044.94;5072651;28;19966;-77
2023/01/29 11:03:36;;;;;;;;;;;;;;;4.25;100.00;100056.94;5055507;28;20461;-77
2023/01/29 11:06:01;;;;;;;;;;;;;;;4.40;100.00;100052.00;5051334;28;19920;-76
2023/01/29 11:08:28;;;;;;;;;;;;;;;4.16;100.00;100029.63;5073559;28;19917;-76
2023/01/29 11:10:59;;;;;;;;;;;;;;;4.50;100.00;100037.63;5075299;28;19985;-75
2023/01/29 11:13:26;;;;;;;;;;;;;;;4.65;100.00;100036.03;5065876;28;20017;-76
2023/01/29 11:15:51;;;;;;;;;;;;;;;4.19;100.00;100031.34;5055854;28;19963;-77
2023/01/29 11:18:17;;;;;;;;;;;;;;;4.37;100.00;100026.44;5054213;28;19959;-76
2023/01/29 11:20:42;;;;;;;;;;;;;;;4.57;100.00;100013.88;5053276;28;20417;-75
2023/01/29 11:23:27;;;;;;;;;;;;;;;4.40;100.00;100010.31;5055164;28;19927;-74
2023/01/29 11:25:52;;;;;;;;;;;;;;;3.95;100.00;100002.22;5050973;28;19916;-75
2023/01/29 11:28:33;;;;;;;;;;;;;;;4.38;100.00;100009.47;5053256;28;20873;-74
2023/01/29 11:30:58;;;;;;;;;;;;;;;4.50;100.00;100012.13;5052701;28;19976;-74
2023/01/29 11:33:24;;;;;;;;;;;;;;;4.19;100.00;99993.97;5055813;28;19968;-74
2023/01/29 11:35:51;;;;;;;;;;;;;;;4.43;100.00;99989.97;5054488;28;19929;-74
2023/01/29 11:38:18;;;;;;;;;;;;;;;4.44;100.00;99981.44;5073451;28;20282;-74
2023/01/29 11:40:43;;;;;;;;;;;;;;;4.38;100.00;99981.41;5071794;28;19994;-74
2023/01/29 11:43:22;;;;;;;;;;;;;;;4.77;100.00;99974.91;5053549;28;19962;-73
2023/01/29 11:45:48;;;;;;;;;;;;;;;4.56;100.00;99976.47;5054900;28;19916;-74
2023/01/29 11:48:15;;;;;;;;;;;;;;;4.25;100.00;99979.59;5056736;28;20350;-75
2023/01/29 11:50:40;;;;;;;;;;;;;;;4.11;100.00;99982.84;5054208;28;19927;-74
2023/01/29 11:53:05;;;;;;;;;;;;;;;4.59;100.00;99978.19;5057814;28;19912;-74
2023/01/29 11:55:31;;;;;;;;;;;;;;;4.89;100.00;99982.66;5054785;28;19920;-75
2023/01/29 11:58:10;;;;;;;;;;;;;;;4.95;100.00;99964.84;5052598;28;19928;-75
2023/01/29 12:00:36;;;;;;;;;;;;;;;5.00;100.00;99967.41;5055829;28;20042;-75
2023/01/29 12:03:06;;;;;;;;;;;;;;;5.24;100.00;99964.13;5053213;28;19999;-74
2023/01/29 12:05:31;;;;;;;;;;;;;;;5.06;100.00;99953.81;5072288;28;20061;-75
2023/01/29 12:07:58;;;;;;;;;;;;;;;4.79;100.00;99952.81;5054744;28;19988;-74
2023/01/29 12:10:31;;;;;;;;;;;;;;;5.41;100.00;99942.09;5056177;28;19920;-74
2023/01/29 12:13:05;;;;;;;;;;;;;;;5.15;100.00;99931.72;5075043;28;19924;-75
2023/01/29 12:15:30;;;;;;;;;;;;;;;5.05;100.00;99921.50;5076164;28;19955;-74
2023/01/29 12:18:10;;;;;;;;;;;;;;;4.55;100.00;99918.63;5059101;28;19951;-75
2023/01/29 12:21:02;;;;;;;;;;;;;;;4.32;100.00;99920.16;5057779;28;20419;-74
2023/01/29 12:23:46;;;;;;;;;;;;;;;5.36;100.00;99919.91;5070869;28;20337;-73
2023/01/29 12:26:14;;;;;;;;;;;;;;;5.22;100.00;99901.97;5072257;28;19923;-74
2023/01/29 12:28:58;;;;;;;;;;;;;;;5.22;100.00;99892.63;5054626;28;20414;-74
2023/01/29 12:31:42;;;;;;;;;;;;;;;5.38;100.00;99880.78;5075545;28;19912;-74
2023/01/29 12:34:10;;;;;;;;;;;;;;;5.72;100.00;99870.63;5077306;28;19920;-72
2023/01/29 12:36:37;;;;;;;;;;;;;;;5.26;100.00;99850.06;5059174;28;20562;-74
2023/01/29 12:39:02;;;;;;;;;;;;;;;5.16;100.00;99853.47;5056120;28;20547;-74
2023/01/29 12:41:37;;;;;;;;;;;;;;;5.56;100.00;99861.22;5075538;28;19920;-74
2023/01/29 12:44:35;;;;;;;;;;;;;;;5.21;100.00;99844.94;5076874;28;21205;-74
2023/01/29 12:47:01;;;;;;;;;;;;;;;5.67;100.00;99836.53;5047762;28;19946;-74
2023/01/29 12:49:31;;;;;;;;;;;;;;;5.54;100.00;99838.25;5059997;28;20539;-74
2023/01/29 12:51:58;;;;;;;;;;;;;;;5.50;100.00;99836.53;5059556;28;19916;-74
2023/01/29 12:54:31;;;;;;;;;;;;;;;5.83;100.00;99828.03;5058981;28;19920;-74
2023/01/29 12:56:57;;;;;;;;;;;;;;;5.50;100.00;99825.47;5081335;28;20531;-74
2023/01/29 12:59:29;;;;;;;;;;;;;;;5.47;100.00;99818.63;5056851;28;19927;-73
2023/01/29 13:01:55;;;;;;;;;;;;;;;5.82;100.00;99808.44;5076461;28;20431;-74
2023/01/29 13:04:41;;;;;;;;;;;;;;;5.60;100.00;99793.94;5050125;28;19923;-74
2023/01/29 13:07:17;;;;;;;;;;;;;;;5.61;100.00;99793.09;5075022;28;20012;-72
2023/01/29 13:09:44;;;;;;;;;;;;;;;5.23;100.00;99793.91;5059137;28;20455;-73